sensor_id;sensor_type;location;lat;lon;timestamp;pressure;altitude;pressure_sealevel;temperature;humidity
17635;BME280;8936;49.010;12.120;2023-02-11T00:00:15;99885.44;;;2.00;100.00
17635;BME280;8936;49.010;12.120;2023-02-11T00:02:42;99887.44;;;1.98;100.00
17635;BME280;8936;49.010;12.120;2023-02-11T00:05:10;99879.66;;;1.96;100.00
17635;BME280;8936;49.010;12.120;2023-02-11T00:07:36;99878.53;;;1.99;100.00
17635;BME280;8936;49.010;12.120;2023-02-11T00:10:03;99887.28;;;2.07;100.00
17635;BME280;8936;49.010;12.120;2023-02-11T00:12:31;99886.47;;;2.07;100.00
17635;BME280;8936;49.010;12.120;2023-02-11T00:14:58;99879.69;;;2.04;100.00
17635;BME280;8936;49.010;12.120;2023-02-11T00:17:24;99882.97;;;1.98;100.00
17635;BME280;8936;49.010;12.120;2023-02-11T00:19:51;99881.34;;;1.97;100.00
17635;BME280;8936;49.010;12.120;2023-02-11T00:22:19;99884.47;;;2.01;100.00
17635;BME280;8936;49.010;12.120;2023-02-11T00:24:45;99872.94;;;2.02;100.00
17635;BME280;8936;49.010;12.120;2023-02-11T00:27:12;99874.25;;;1.98;100.00
17635;BME280;8936;49.010;12.120;2023-02-11T00:29:38;99869.13;;;1.96;100.00
17635;BME280;8936;49.010;12.120;2023-02-11T00:32:04;99868.94;;;1.90;100.00
17635;BME280;8936;49.010;12.120;2023-02-11T00:34:33;99872.59;;;1.89;100.00
17635;BME280;8936;49.010;12.120;2023-02-11T00:36:59;99874.94;;;1.66;100.00
17635;BME280;8936;49.010;12.120;2023-02-11T00:39:27;99869.50;;;1.68;100.00
17635;BME280;8936;49.010;12.120;2023-02-11T00:41:53;99872.78;;;1.61;100.00
17635;BME280;8936;49.010;12.120;2023-02-11T00:44:20;99870.47;;;1.58;100.00
17635;BME280;8936;49.010;12.120;2023-02-11T00:46:46;99874.25;;;1.56;100.00
17635;BME280;8936;49.010;12.120;2023-02-11T00:49:13;99868.00;;;1.57;100.00
17635;BME280;8936;49.010;12.120;2023-02-11T00:51:39;99862.44;;;1.34;100.00
17635;BME280;8936;49.010;12.120;2023-02-11T00:54:05;99861.41;;;1.27;100.00
17635;BME280;8936;49.010;12.120;2023-02-11T00:56:33;99864.72;;;1.03;100.00
17635;BME280;8936;49.010;12.120;2023-02-11T00:59:00;99870.19;;;0.84;100.00
17635;BME280;8936;49.010;12.120;2023-02-11T01:01:26;99873.06;;;0.73;100.00
17635;BME280;8936;49.010;12.120;2023-02-11T01:03:52;99880.28;;;0.53;100.00
17635;BME280;8936;49.010;12.120;2023-02-11T01:06:19;99880.06;;;0.47;100.00
17635;BME280;8936;49.010;12.120;2023-02-11T01:08:45;99876.53;;;0.56;100.00
17635;BME280;8936;49.010;12.120;2023-02-11T01:11:12;99875.03;;;0.36;100.00
17635;BME280;8936;49.010;12.120;2023-02-11T01:13:41;99878.03;;;0.06;100.00
17635;BME280;8936;49.010;12.120;2023-02-11T01:16:08;99873.75;;;0.22;100.00
17635;BME280;8936;49.010;12.120;2023-02-11T01:18:34;99873.00;;;0.47;100.00
17635;BME280;8936;49.010;12.120;2023-02-11T01:21:01;99875.63;;;0.65;100.00
17635;BME280;8936;49.010;12.120;2023-02-11T01:23:28;99866.28;;;0.88;100.00
17635;BME280;8936;49.010;12.120;2023-02-11T01:25:54;99859.88;;;0.91;100.00
17635;BME280;8936;49.010;12.120;2023-02-11T01:28:25;99862.38;;;0.92;100.00
17635;BME280;8936;49.010;12.120;2023-02-11T01:30:53;99856.59;;;0.89;100.00
17635;BME280;8936;49.010;12.120;2023-02-11T01:33:20;99841.34;;;0.75;100.00
17635;BME280;8936;49.010;12.120;2023-02-11T01:35:47;99846.50;;;0.41;100.00
17635;BME280;8936;49.010;12.120;2023-02-11T01:38:14;99843.41;;;0.10;100.00
17635;BME280;8936;49.010;12.120;2023-02-11T01:40:45;99845.56;;;-0.03;100.00
17635;BME280;8936;49.010;12.120;2023-02-11T01:43:11;99852.94;;;-0.07;100.00
17635;BME280;8936;49.010;12.120;2023-02-11T01:45:48;99844.47;;;0.35;100.00
17635;BME280;8936;49.010;12.120;2023-02-11T01:48:20;99825.16;;;0.44;100.00
17635;BME280;8936;49.010;12.120;2023-02-11T01:50:49;99820.34;;;0.57;100.00
17635;BME280;8936;49.010;12.120;2023-02-11T01:53:16;99816.63;;;0.42;100.00
17635;BME280;8936;49.010;12.120;2023-02-11T01:56:00;99813.09;;;0.33;100.00
17635;BME280;8936;49.010;12.120;2023-02-11T01:58:45;99803.41;;;0.34;100.00
17635;BME280;8936;49.010;12.120;2023-02-11T02:01:13;99797.78;;;0.29;100.00
17635;BME280;8936;49.010;12.120;2023-02-11T02:03:42;99793.66;;;0.09;100.00
17635;BME280;8936;49.010;12.120;2023-02-11T02:06:11;99802.59;;;-0.02;100.00
17635;BME280;8936;49.010;12.120;2023-02-11T02:08:43;99798.34;;;-0.30;100.00
17635;BME280;8936;49.010;12.120;2023-02-11T02:11:12;99795.50;;;-0.64;100.00
17635;BME280;8936;49.010;12.120;2023-02-11T02:13:38;99799.41;;;-0.41;100.00
17635;BME280;8936;49.010;12.120;2023-02-11T02:16:05;99798.97;;;-0.19;100.00
17635;BME280;8936;49.010;12.120;2023-02-11T02:18:34;99791.63;;;-0.60;100.00
17635;BME280;8936;49.010;12.120;2023-02-11T02:26:40;99799.41;;;-0.23;100.00
17635;BME280;8936;49.010;12.120;2023-02-11T02:29:21;99790.53;;;-0.40;100.00
17635;BME280;8936;49.010;12.120;2023-02-11T02:31:53;99796.38;;;-0.46;100.00
17635;BME280;8936;49.010;12.120;2023-02-11T02:34:29;99793.16;;;-0.40;100.00
17635;BME280;8936;49.010;12.120;2023-02-11T02:36:59;99796.00;;;-0.51;100.00
17635;BME280;8936;49.010;12.120;2023-02-11T02:39:28;99802.31;;;-0.44;100.00
17635;BME280;8936;49.010;12.120;2023-02-11T02:41:56;99798.47;;;-0.05;100.00
17635;BME280;8936;49.010;12.120;2023-02-11T02:44:23;99806.56;;;0.20;100.00
17635;BME280;8936;49.010;12.120;2023-02-11T02:46:49;99803.16;;;0.45;100.00
17635;BME280;8936;49.010;12.120;2023-02-11T02:49:16;99799.06;;;0.68;100.00
17635;BME280;8936;49.010;12.120;2023-02-11T02:51:50;99801.19;;;0.90;100.00
17635;BME280;8936;49.010;12.120;2023-02-11T02:54:42;99787.41;;;0.96;100.00
17635;BME280;8936;49.010;12.120;2023-02-11T02:57:17;99796.84;;;1.07;100.00
17635;BME280;8936;49.010;12.120;2023-02-11T02:59:51;99788.97;;;1.15;100.00
17635;BME280;8936;49.010;12.120;2023-02-11T03:02:23;99791.16;;;1.20;100.00
17635;BME280;8936;49.010;12.120;2023-02-11T03:04:54;99793.47;;;1.23;100.00
17635;BME280;8936;49.010;12.120;2023-02-11T03:07:26;99788.34;;;1.21;100.00
17635;BME280;8936;49.010;12.120;2023-02-11T03:09:57;99795.78;;;1.26;100.00
17635;BME280;8936;49.010;12.120;2023-02-11T03:12:25;99790.19;;;1.29;100.00
17635;BME280;8936;49.010;12.120;2023-02-11T03:14:52;99782.13;;;1.22;100.00
17635;BME280;8936;49.010;12.120;2023-02-11T03:17:19;99783.91;;;1.22;100.00
17635;BME280;8936;49.010;12.120;2023-02-11T03:19:47;99785.38;;;1.16;100.00
17635;BME280;8936;49.010;12.120;2023-02-11T03:22:15;99769.38;;;1.09;100.00
17635;BME280;8936;49.010;12.120;2023-02-11T03:24:43;99764.75;;;1.03;100.00
17635;BME280;8936;49.010;12.120;2023-02-11T03:27:11;99765.66;;;0.61;100.00
17635;BME280;8936;49.010;12.120;2023-02-11T03:29:42;99762.88;;;0.01;100.00
17635;BME280;8936;49.010;12.120;2023-02-11T03:32:11;99777.44;;;-0.05;100.00
17635;BME280;8936;49.010;12.120;2023-02-11T03:34:41;99784.06;;;-0.01;100.00
17635;BME280;8936;49.010;12.120;2023-02-11T03:37:11;99775.56;;;0.23;100.00
17635;BME280;8936;49.010;12.120;2023-02-11T03:39:40;99771.06;;;0.33;100.00
17635;BME280;8936;49.010;12.120;2023-02-11T03:42:09;99785.50;;;0.37;100.00
17635;BME280;8936;49.010;12.120;2023-02-11T03:44:37;99782.81;;;0.47;100.00
17635;BME280;8936;49.010;12.120;2023-02-11T03:47:06;99774.56;;;0.42;100.00
17635;BME280;8936;49.010;12.120;2023-02-11T03:49:34;99775.03;;;0.20;100.00
17635;BME280;8936;49.010;12.120;2023-02-11T03:52:01;99769.19;;;0.08;100.00
17635;BME280;8936;49.010;12.120;2023-02-11T03:54:29;99771.66;;;0.10;100.00
17635;BME280;8936;49.010;12.120;2023-02-11T03:56:57;99780.91;;;-0.04;100.00
17635;BME280;8936;49.010;12.120;2023-02-11T03:59:25;99776.00;;;0.01;100.00
17635;BME280;8936;49.010;12.120;2023-02-11T04:01:52;99789.91;;;-0.07;100.00
17635;BME280;8936;49.010;12.120;2023-02-11T04:04:18;99790.81;;;-0.16;100.00
17635;BME280;8936;49.010;12.120;2023-02-11T04:06:45;99789.38;;;0.08;100.00
17635;BME280;8936;49.010;12.120;2023-02-11T04:09:11;99770.28;;;0.41;100.00
17635;BME280;8936;49.010;12.120;2023-02-11T04:11:37;99777.16;;;0.60;100.00
17635;BME280;8936;49.010;12.120;2023-02-11T04:14:04;99770.56;;;0.56;100.00
17635;BME280;8936;49.010;12.120;2023-02-11T04:16:32;99774.25;;;0.45;100.00
17635;BME280;8936;49.010;12.120;2023-02-11T04:18:58;99779.31;;;0.21;100.00
17635;BME280;8936;49.010;12.120;2023-02-11T04:21:25;99773.09;;;0.04;100.00
17635;BME280;8936;49.010;12.120;2023-02-11T04:23:51;99781.09;;;-0.15;100.00
17635;BME280;8936;49.010;12.120;2023-02-11T04:26:18;99778.84;;;-0.73;100.00
17635;BME280;8936;49.010;12.120;2023-02-11T04:28:44;99773.69;;;-0.92;100.00
17635;BME280;8936;49.010;12.120;2023-02-11T04:31:10;99764.81;;;-1.18;100.00
17635;BME280;8936;49.010;12.120;2023-02-11T04:33:38;99764.28;;;-1.22;100.00
17635;BME280;8936;49.010;12.120;2023-02-11T04:36:05;99751.78;;;-1.00;100.00
17635;BME280;8936;49.010;12.120;2023-02-11T04:38:31;99759.97;;;-1.13;100.00
17635;BME280;8936;49.010;12.120;2023-02-11T04:40:57;99755.03;;;-1.26;100.00
17635;BME280;8936;49.010;12.120;2023-02-11T04:43:24;99764.03;;;-1.38;100.00
17635;BME280;8936;49.010;12.120;2023-02-11T04:45:50;99761.59;;;-1.49;100.00
17635;BME280;8936;49.010;12.120;2023-02-11T04:48:17;99749.44;;;-1.50;100.00
17635;BME280;8936;49.010;12.120;2023-02-11T04:50:44;99753.88;;;-1.60;100.00
17635;BME280;8936;49.010;12.120;2023-02-11T04:53:11;99742.84;;;-1.73;100.00
17635;BME280;8936;49.010;12.120;2023-02-11T04:55:37;99760.53;;;-1.75;100.00
17635;BME280;8936;49.010;12.120;2023-02-11T04:58:03;99753.88;;;-1.70;100.00
17635;BME280;8936;49.010;12.120;2023-02-11T05:00:30;99751.28;;;-1.79;100.00
17635;BME280;8936;49.010;12.120;2023-02-11T05:02:56;99742.63;;;-1.89;100.00
17635;BME280;8936;49.010;12.120;2023-02-11T05:05:22;99741.97;;;-1.45;100.00
17635;BME280;8936;49.010;12.120;2023-02-11T05:07:50;99747.09;;;-1.06;100.00
17635;BME280;8936;49.010;12.120;2023-02-11T05:10:16;99762.63;;;-1.23;100.00
17635;BME280;8936;49.010;12.120;2023-02-11T05:12:43;99762.09;;;-1.36;100.00
17635;BME280;8936;49.010;12.120;2023-02-11T05:15:09;99751.69;;;-1.65;100.00
17635;BME280;8936;49.010;12.120;2023-02-11T05:17:35;99745.34;;;-1.72;100.00
17635;BME280;8936;49.010;12.120;2023-02-11T05:20:02;99763.69;;;-1.72;100.00
17635;BME280;8936;49.010;12.120;2023-02-11T05:22:28;99761.34;;;-1.75;100.00
17635;BME280;8936;49.010;12.120;2023-02-11T05:24:56;99762.44;;;-1.58;100.00
17635;BME280;8936;49.010;12.120;2023-02-11T05:27:22;99761.31;;;-1.46;100.00
17635;BME280;8936;49.010;12.120;2023-02-11T05:29:49;99754.16;;;-1.63;100.00
17635;BME280;8936;49.010;12.120;2023-02-11T05:32:15;99743.56;;;-1.81;100.00
17635;BME280;8936;49.010;12.120;2023-02-11T05:34:41;99750.31;;;-1.78;100.00
17635;BME280;8936;49.010;12.120;2023-02-11T05:37:07;99750.31;;;-1.78;100.00
17635;BME280;8936;49.010;12.120;2023-02-11T05:39:34;99731.72;;;-1.75;100.00
17635;BME280;8936;49.010;12.120;2023-02-11T05:42:02;99727.03;;;-1.25;100.00
17635;BME280;8936;49.010;12.120;2023-02-11T05:44:28;99730.00;;;-1.11;100.00
17635;BME280;8936;49.010;12.120;2023-02-11T05:46:54;99723.34;;;-1.05;100.00
17635;BME280;8936;49.010;12.120;2023-02-11T05:49:21;99718.25;;;-1.34;100.00
17635;BME280;8936;49.010;12.120;2023-02-11T05:51:47;99731.81;;;-1.67;100.00
17635;BME280;8936;49.010;12.120;2023-02-11T05:54:13;99717.94;;;-1.77;100.00
17635;BME280;8936;49.010;12.120;2023-02-11T05:56:40;99719.56;;;-1.67;100.00
17635;BME280;8936;49.010;12.120;2023-02-11T05:59:08;99725.25;;;-1.81;100.00
17635;BME280;8936;49.010;12.120;2023-02-11T06:01:34;99720.00;;;-1.90;100.00
17635;BME280;8936;49.010;12.120;2023-02-11T06:04:01;99725.53;;;-2.03;100.00
17635;BME280;8936;49.010;12.120;2023-02-11T06:06:27;99730.78;;;-1.93;100.00
17635;BME280;8936;49.010;12.120;2023-02-11T06:08:53;99727.47;;;-1.95;100.00
17635;BME280;8936;49.010;12.120;2023-02-11T06:11:20;99730.94;;;-2.04;100.00
17635;BME280;8936;49.010;12.120;2023-02-11T06:13:46;99730.50;;;-1.90;100.00
17635;BME280;8936;49.010;12.120;2023-02-11T06:16:14;99737.78;;;-1.84;100.00
17635;BME280;8936;49.010;12.120;2023-02-11T06:18:40;99732.38;;;-1.73;100.00
17635;BME280;8936;49.010;12.120;2023-02-11T06:21:07;99712.53;;;-1.66;100.00
17635;BME280;8936;49.010;12.120;2023-02-11T06:23:34;99706.97;;;-1.53;100.00
17635;BME280;8936;49.010;12.120;2023-02-11T06:26:01;99701.47;;;-1.50;100.00
17635;BME280;8936;49.010;12.120;2023-02-11T06:28:27;99706.03;;;-1.62;100.00
17635;BME280;8936;49.010;12.120;2023-02-11T06:30:55;99705.88;;;-1.60;100.00
17635;BME280;8936;49.010;12.120;2023-02-11T06:33:22;99714.72;;;-1.52;100.00
17635;BME280;8936;49.010;12.120;2023-02-11T06:35:49;99711.69;;;-1.67;100.00
17635;BME280;8936;49.010;12.120;2023-02-11T06:38:15;99721.88;;;-1.64;100.00
17635;BME280;8936;49.010;12.120;2023-02-11T06:40:45;99715.31;;;-1.77;100.00
17635;BME280;8936;49.010;12.120;2023-02-11T06:43:12;99713.94;;;-1.81;100.00
17635;BME280;8936;49.010;12.120;2023-02-11T06:45:38;99724.03;;;-1.86;100.00
17635;BME280;8936;49.010;12.120;2023-02-11T06:48:04;99734.59;;;-1.78;100.00
17635;BME280;8936;49.010;12.120;2023-02-11T06:50:32;99743.69;;;-1.82;100.00
17635;BME280;8936;49.010;12.120;2023-02-11T06:52:58;99730.22;;;-1.87;100.00
17635;BME280;8936;49.010;12.120;2023-02-11T06:55:25;99723.31;;;-1.88;100.00
17635;BME280;8936;49.010;12.120;2023-02-11T06:57:51;99737.22;;;-1.88;100.00
17635;BME280;8936;49.010;12.120;2023-02-11T07:00:19;99746.75;;;-1.77;100.00
17635;BME280;8936;49.010;12.120;2023-02-11T07:02:45;99749.94;;;-1.83;100.00
17635;BME280;8936;49.010;12.120;2023-02-11T07:05:12;99743.97;;;-1.85;100.00
17635;BME280;8936;49.010;12.120;2023-02-11T07:07:39;99712.28;;;-1.82;100.00
17635;BME280;8936;49.010;12.120;2023-02-11T07:10:06;99711.38;;;-1.44;100.00
17635;BME280;8936;49.010;12.120;2023-02-11T07:12:32;99714.34;;;-1.30;100.00
17635;BME280;8936;49.010;12.120;2023-02-11T07:14:58;99724.47;;;-1.44;100.00
17635;BME280;8936;49.010;12.120;2023-02-11T07:17:25;99709.97;;;-1.39;100.00
17635;BME280;8936;49.010;12.120;2023-02-11T07:19:51;99696.13;;;-1.58;100.00
17635;BME280;8936;49.010;12.120;2023-02-11T07:22:17;99710.72;;;-1.56;100.00
17635;BME280;8936;49.010;12.120;2023-02-11T07:24:45;99717.34;;;-1.52;100.00
17635;BME280;8936;49.010;12.120;2023-02-11T07:27:11;99715.38;;;-1.50;100.00
17635;BME280;8936;49.010;12.120;2023-02-11T07:29:38;99699.84;;;-1.61;100.00
17635;BME280;8936;49.010;12.120;2023-02-11T07:32:04;99707.53;;;-1.50;100.00
17635;BME280;8936;49.010;12.120;2023-02-11T07:34:30;99717.56;;;-1.45;100.00
17635;BME280;8936;49.010;12.120;2023-02-11T07:36:57;99708.91;;;-1.46;100.00
17635;BME280;8936;49.010;12.120;2023-02-11T07:39:23;99712.47;;;-1.47;100.00
17635;BME280;8936;49.010;12.120;2023-02-11T07:41:52;99719.66;;;-1.39;100.00
17635;BME280;8936;49.010;12.120;2023-02-11T07:44:19;99716.72;;;-1.36;100.00
17635;BME280;8936;49.010;12.120;2023-02-11T07:46:45;99712.59;;;-1.39;100.00
17635;BME280;8936;49.010;12.120;2023-02-11T07:49:13;99736.59;;;-1.43;100.00
17635;BME280;8936;49.010;12.120;2023-02-11T07:51:40;99749.16;;;-1.37;100.00
17635;BME280;8936;49.010;12.120;2023-02-11T07:54:06;99739.50;;;-1.37;100.00
17635;BME280;8936;49.010;12.120;2023-02-11T07:56:33;99742.94;;;-1.36;100.00
17635;BME280;8936;49.010;12.120;2023-02-11T07:59:01;99737.81;;;-1.28;100.00
17635;BME280;8936;49.010;12.120;2023-02-11T08:01:28;99733.34;;;-1.18;100.00
17635;BME280;8936;49.010;12.120;2023-02-11T08:03:55;99733.91;;;-1.15;100.00
17635;BME280;8936;49.010;12.120;2023-02-11T08:06:23;99746.84;;;-1.13;100.00
17635;BME280;8936;49.010;12.120;2023-02-11T08:08:49;99730.91;;;-1.02;100.00
17635;BME280;8936;49.010;12.120;2023-02-11T08:11:16;99740.31;;;-0.99;100.00
17635;BME280;8936;49.010;12.120;2023-02-11T08:13:43;99728.84;;;-0.98;100.00
17635;BME280;8936;49.010;12.120;2023-02-11T08:16:16;99729.41;;;-1.04;100.00
17635;BME280;8936;49.010;12.120;2023-02-11T08:18:43;99736.88;;;-1.00;100.00
17635;BME280;8936;49.010;12.120;2023-02-11T08:21:09;99744.28;;;-0.95;100.00
17635;BME280;8936;49.010;12.120;2023-02-11T08:23:36;99736.56;;;-0.97;100.00
17635;BME280;8936;49.010;12.120;2023-02-11T08:26:03;99725.22;;;-0.88;100.00
17635;BME280;8936;49.010;12.120;2023-02-11T08:28:29;99724.00;;;-0.93;100.00
17635;BME280;8936;49.010;12.120;2023-02-11T08:30:55;99719.69;;;-0.85;100.00
17635;BME280;8936;49.010;12.120;2023-02-11T08:33:23;99720.16;;;-0.72;100.00
17635;BME280;8936;49.010;12.120;2023-02-11T08:35:49;99733.03;;;-0.78;100.00
17635;BME280;8936;49.010;12.120;2023-02-11T08:38:16;99747.50;;;-0.74;100.00
17635;BME280;8936;49.010;12.120;2023-02-11T08:40:42;99740.16;;;-0.71;100.00
17635;BME280;8936;49.010;12.120;2023-02-11T08:43:08;99749.25;;;-0.65;100.00
17635;BME280;8936;49.010;12.120;2023-02-11T08:45:35;99749.94;;;-0.63;100.00
17635;BME280;8936;49.010;12.120;2023-02-11T08:48:02;99763.59;;;-0.60;100.00
17635;BME280;8936;49.010;12.120;2023-02-11T08:50:29;99762.53;;;-0.49;100.00
17635;BME280;8936;49.010;12.120;2023-02-11T08:52:56;99759.03;;;-0.40;100.00
17635;BME280;8936;49.010;12.120;2023-02-11T08:55:22;99776.63;;;-0.23;100.00
17635;BME280;8936;49.010;12.120;2023-02-11T08:57:48;99755.00;;;-0.17;100.00
17635;BME280;8936;49.010;12.120;2023-02-11T09:00:15;99759.00;;;-0.13;100.00
17635;BME280;8936;49.010;12.120;2023-02-11T09:02:42;99753.44;;;-0.10;100.00
17635;BME280;8936;49.010;12.120;2023-02-11T09:05:09;99747.28;;;-0.01;100.00
17635;BME280;8936;49.010;12.120;2023-02-11T09:07:36;99747.22;;;0.09;100.00
17635;BME280;8936;49.010;12.120;2023-02-11T09:10:03;99746.75;;;0.14;100.00
17635;BME280;8936;49.010;12.120;2023-02-11T09:12:30;99741.53;;;0.22;100.00
17635;BME280;8936;49.010;12.120;2023-02-11T09:14:56;99730.75;;;0.25;100.00
17635;BME280;8936;49.010;12.120;2023-02-11T09:17:23;99739.59;;;0.24;100.00
17635;BME280;8936;49.010;12.120;2023-02-11T09:19:49;99725.19;;;0.28;100.00
17635;BME280;8936;49.010;12.120;2023-02-11T09:22:16;99753.00;;;0.38;100.00
17635;BME280;8936;49.010;12.120;2023-02-11T09:24:43;99750.69;;;0.35;100.00
17635;BME280;8936;49.010;12.120;2023-02-11T09:27:10;99734.56;;;0.30;100.00
17635;BME280;8936;49.010;12.120;2023-02-11T09:29:36;99734.09;;;0.35;100.00
17635;BME280;8936;49.010;12.120;2023-02-11T09:32:02;99724.75;;;0.40;100.00
17635;BME280;8936;49.010;12.120;2023-02-11T09:34:29;99734.16;;;0.43;100.00
17635;BME280;8936;49.010;12.120;2023-02-11T09:36:55;99737.28;;;0.46;100.00
17635;BME280;8936;49.010;12.120;2023-02-11T09:39:21;99743.22;;;0.48;100.00
17635;BME280;8936;49.010;12.120;2023-02-11T09:41:58;99736.69;;;0.52;100.00
17635;BME280;8936;49.010;12.120;2023-02-11T09:44:27;99730.59;;;0.52;100.00
17635;BME280;8936;49.010;12.120;2023-02-11T09:46:55;99730.91;;;0.49;100.00
17635;BME280;8936;49.010;12.120;2023-02-11T09:49:23;99724.00;;;0.48;100.00
17635;BME280;8936;49.010;12.120;2023-02-11T09:51:52;99727.59;;;0.47;100.00
17635;BME280;8936;49.010;12.120;2023-02-11T09:54:26;99731.44;;;0.52;100.00
17635;BME280;8936;49.010;12.120;2023-02-11T09:56:54;99734.88;;;0.53;100.00
17635;BME280;8936;49.010;12.120;2023-02-11T09:59:21;99733.91;;;0.54;100.00
17635;BME280;8936;49.010;12.120;2023-02-11T10:01:48;99727.34;;;0.58;100.00
17635;BME280;8936;49.010;12.120;2023-02-11T10:04:18;99732.63;;;0.58;100.00
17635;BME280;8936;49.010;12.120;2023-02-11T10:06:47;99737.00;;;0.49;100.00
17635;BME280;8936;49.010;12.120;2023-02-11T10:09:17;99743.88;;;0.50;100.00
17635;BME280;8936;49.010;12.120;2023-02-11T10:11:48;99737.81;;;0.50;100.00
17635;BME280;8936;49.010;12.120;2023-02-11T10:14:23;99733.59;;;0.57;100.00
17635;BME280;8936;49.010;12.120;2023-02-11T10:16:54;99742.50;;;0.64;100.00
17635;BME280;8936;49.010;12.120;2023-02-11T10:19:29;99745.50;;;0.69;100.00
17635;BME280;8936;49.010;12.120;2023-02-11T10:22:02;99747.47;;;0.67;100.00
17635;BME280;8936;49.010;12.120;2023-02-11T10:24:30;99740.97;;;0.79;100.00
17635;BME280;8936;49.010;12.120;2023-02-11T10:26:57;99730.13;;;0.82;100.00
17635;BME280;8936;49.010;12.120;2023-02-11T10:29:29;99719.13;;;0.87;100.00
17635;BME280;8936;49.010;12.120;2023-02-11T10:31:57;99720.31;;;0.92;100.00
17635;BME280;8936;49.010;12.120;2023-02-11T10:34:25;99723.28;;;0.97;100.00
17635;BME280;8936;49.010;12.120;2023-02-11T10:36:51;99721.31;;;0.99;100.00
17635;BME280;8936;49.010;12.120;2023-02-11T10:39:19;99722.66;;;1.03;100.00
17635;BME280;8936;49.010;12.120;2023-02-11T10:41:46;99713.63;;;1.06;100.00
17635;BME280;8936;49.010;12.120;2023-02-11T10:44:17;99710.53;;;1.11;100.00
17635;BME280;8936;49.010;12.120;2023-02-11T10:46:46;99706.28;;;1.18;100.00
17635;BME280;8936;49.010;12.120;2023-02-11T10:49:31;99707.13;;;1.26;100.00
17635;BME280;8936;49.010;12.120;2023-02-11T10:52:06;99702.06;;;1.33;100.00
17635;BME280;8936;49.010;12.120;2023-02-11T10:54:37;99688.38;;;1.37;100.00
17635;BME280;8936;49.010;12.120;2023-02-11T10:57:03;99698.25;;;1.35;100.00
17635;BME280;8936;49.010;12.120;2023-02-11T10:59:30;99700.25;;;1.41;100.00
17635;BME280;8936;49.010;12.120;2023-02-11T11:01:59;99689.91;;;1.48;100.00
17635;BME280;8936;49.010;12.120;2023-02-11T11:04:39;99697.47;;;1.51;100.00
17635;BME280;8936;49.010;12.120;2023-02-11T11:07:09;99684.66;;;1.48;100.00
17635;BME280;8936;49.010;12.120;2023-02-11T11:09:42;99679.72;;;1.53;100.00
17635;BME280;8936;49.010;12.120;2023-02-11T11:12:12;99682.50;;;1.59;100.00
17635;BME280;8936;49.010;12.120;2023-02-11T11:14:51;99689.13;;;1.63;100.00
17635;BME280;8936;49.010;12.120;2023-02-11T11:17:20;99672.81;;;1.60;100.00
17635;BME280;8936;49.010;12.120;2023-02-11T11:19:46;99664.22;;;1.58;100.00
17635;BME280;8936;49.010;12.120;2023-02-11T11:22:18;99660.16;;;1.63;100.00
17635;BME280;8936;49.010;12.120;2023-02-11T11:24:46;99658.97;;;1.74;100.00
17635;BME280;8936;49.010;12.120;2023-02-11T11:27:18;99666.06;;;1.82;100.00
17635;BME280;8936;49.010;12.120;2023-02-11T11:29:46;99683.38;;;1.76;100.00
17635;BME280;8936;49.010;12.120;2023-02-11T11:32:14;99677.09;;;1.77;100.00
17635;BME280;8936;49.010;12.120;2023-02-11T11:34:47;99678.25;;;1.83;100.00
17635;BME280;8936;49.010;12.120;2023-02-11T11:37:18;99677.13;;;1.85;100.00
17635;BME280;8936;49.010;12.120;2023-02-11T11:39:47;99685.66;;;1.87;100.00
17635;BME280;8936;49.010;12.120;2023-02-11T11:42:23;99677.63;;;1.89;100.00
17635;BME280;8936;49.010;12.120;2023-02-11T11:44:55;99653.06;;;1.88;100.00
17635;BME280;8936;49.010;12.120;2023-02-11T11:47:26;99657.66;;;1.86;100.00
17635;BME280;8936;49.010;12.120;2023-02-11T11:50:00;99649.09;;;1.92;100.00
17635;BME280;8936;49.010;12.120;2023-02-11T11:52:32;99645.81;;;1.90;100.00
17635;BME280;8936;49.010;12.120;2023-02-11T11:55:02;99652.06;;;1.89;100.00
17635;BME280;8936;49.010;12.120;2023-02-11T11:57:29;99653.72;;;1.98;100.00
17635;BME280;8936;49.010;12.120;2023-02-11T11:59:56;99634.81;;;1.95;100.00
17635;BME280;8936;49.010;12.120;2023-02-11T12:02:32;99635.13;;;2.00;100.00
17635;BME280;8936;49.010;12.120;2023-02-11T12:05:02;99630.31;;;2.11;100.00
17635;BME280;8936;49.010;12.120;2023-02-11T12:07:35;99636.25;;;2.13;100.00
17635;BME280;8936;49.010;12.120;2023-02-11T12:10:15;99643.84;;;2.16;100.00
17635;BME280;8936;49.010;12.120;2023-02-11T12:12:48;99644.47;;;2.10;100.00
17635;BME280;8936;49.010;12.120;2023-02-11T12:15:22;99633.91;;;2.27;100.00
17635;BME280;8936;49.010;12.120;2023-02-11T12:17:55;99638.88;;;2.22;100.00
17635;BME280;8936;49.010;12.120;2023-02-11T12:20:30;99643.84;;;2.16;100.00
17635;BME280;8936;49.010;12.120;2023-02-11T12:23:01;99636.88;;;2.24;100.00
17635;BME280;8936;49.010;12.120;2023-02-11T12:25:36;99627.81;;;2.26;100.00
17635;BME280;8936;49.010;12.120;2023-02-11T12:28:09;99641.47;;;2.30;100.00
17635;BME280;8936;49.010;12.120;2023-02-11T12:30:48;99637.50;;;2.42;100.00
17635;BME280;8936;49.010;12.120;2023-02-11T12:33:21;99633.56;;;2.38;100.00
17635;BME280;8936;49.010;12.120;2023-02-11T12:35:54;99615.25;;;2.44;100.00
17635;BME280;8936;49.010;12.120;2023-02-11T12:38:27;99621.66;;;2.50;100.00
17635;BME280;8936;49.010;12.120;2023-02-11T12:41:01;99607.13;;;2.54;100.00
17635;BME280;8936;49.010;12.120;2023-02-11T12:43:30;99604.84;;;2.51;100.00
17635;BME280;8936;49.010;12.120;2023-02-11T12:46:07;99595.31;;;2.50;100.00
17635;BME280;8936;49.010;12.120;2023-02-11T12:48:44;99600.53;;;2.58;100.00
17635;BME280;8936;49.010;12.120;2023-02-11T12:51:18;99599.53;;;2.59;100.00
17635;BME280;8936;49.010;12.120;2023-02-11T12:53:53;99590.13;;;2.64;100.00
17635;BME280;8936;49.010;12.120;2023-02-11T12:56:25;99596.72;;;2.68;100.00
17635;BME280;8936;49.010;12.120;2023-02-11T12:58:53;99598.47;;;2.76;100.00
17635;BME280;8936;49.010;12.120;2023-02-11T13:01:22;99587.78;;;2.69;100.00
17635;BME280;8936;49.010;12.120;2023-02-11T13:03:52;99592.22;;;2.77;100.00
17635;BME280;8936;49.010;12.120;2023-02-11T13:06:23;99593.25;;;2.68;100.00